ABR5061 EDDK-EGNX
Flight info
| Callsign | ABR5061 |
|---|---|
| Flight time | 1h 39m |
| Altitude | 20000 |
| Route | NVO2D NVO Y868 NAVAK DCT DENUT L610 HEMEL |
| Aircraft | AT76/M-SDFGIRY/S |
Departure
| Time | 2026-05-04 13:25 |
|---|---|
| Airport | Cologne Bonn Airport (EDDK) |
Arrival
| Time | 2026-05-04 15:04 |
|---|---|
| Airport | East Midlands Airport (EGNX) |
| Time | Latitude | Longitude | Altitude | Speed | Heading |
|---|---|---|---|---|---|
| 2026-05-04 12:58 | 50.86758 | 7.13973 | 244 ft | 0 kts | 227° |
| 2026-05-04 13:12 | 50.86767 | 7.13990 | 244 ft | 4 kts | 229° |
| 2026-05-04 13:12 | 50.86785 | 7.14023 | 244 ft | 4 kts | 234° |
| 2026-05-04 13:12 | 50.86799 | 7.14058 | 245 ft | 4 kts | 249° |
| 2026-05-04 13:13 | 50.86803 | 7.14094 | 245 ft | 4 kts | 303° |
| 2026-05-04 13:13 | 50.86796 | 7.14106 | 246 ft | 1 kts | 320° |
| 2026-05-04 13:19 | 50.86810 | 7.14087 | 245 ft | 7 kts | 319° |
| 2026-05-04 13:19 | 50.86862 | 7.14016 | 242 ft | 12 kts | 323° |
| 2026-05-04 13:20 | 50.86893 | 7.14016 | 243 ft | 4 kts | 24° |
| 2026-05-04 13:20 | 50.86908 | 7.14035 | 246 ft | 0 kts | 51° |
| 2026-05-04 13:20 | 50.86914 | 7.14065 | 247 ft | 8 kts | 82° |
| 2026-05-04 13:20 | 50.86905 | 7.14178 | 249 ft | 12 kts | 101° |
| 2026-05-04 13:21 | 50.86889 | 7.14306 | 255 ft | 12 kts | 101° |
| 2026-05-04 13:21 | 50.86869 | 7.14457 | 253 ft | 17 kts | 99° |
| 2026-05-04 13:21 | 50.86890 | 7.14647 | 252 ft | 18 kts | 68° |
| 2026-05-04 13:21 | 50.86945 | 7.14831 | 252 ft | 19 kts | 63° |
| 2026-05-04 13:22 | 50.86999 | 7.15008 | 257 ft | 16 kts | 65° |
| 2026-05-04 13:22 | 50.87044 | 7.15158 | 262 ft | 14 kts | 64° |
| 2026-05-04 13:22 | 50.87083 | 7.15288 | 268 ft | 12 kts | 64° |
| 2026-05-04 13:22 | 50.87111 | 7.15404 | 274 ft | 9 kts | 103° |
| 2026-05-04 13:23 | 50.87064 | 7.15451 | 276 ft | 8 kts | 156° |
| 2026-05-04 13:23 | 50.87013 | 7.15481 | 278 ft | 8 kts | 161° |
| 2026-05-04 13:23 | 50.86957 | 7.15480 | 276 ft | 9 kts | 212° |
| 2026-05-04 13:23 | 50.86940 | 7.15440 | 273 ft | 0 kts | 246° |
| 2026-05-04 13:24 | 50.86935 | 7.15420 | 272 ft | 15 kts | 246° |
| 2026-05-04 13:24 | 50.86760 | 7.14846 | 254 ft | 96 kts | 244° |
| 2026-05-04 13:24 | 50.86397 | 7.13653 | 329 ft | 134 kts | 244° |
| 2026-05-04 13:25 | 50.85509 | 7.10957 | 1323 ft | 140 kts | 238° |
| 2026-05-04 13:25 | 50.85073 | 7.09563 | 1885 ft | 142 kts | 243° |
| 2026-05-04 13:25 | 50.84670 | 7.08157 | 2515 ft | 140 kts | 242° |
| 2026-05-04 13:25 | 50.84284 | 7.06784 | 3123 ft | 137 kts | 242° |
| 2026-05-04 13:26 | 50.83986 | 7.05346 | 3619 ft | 146 kts | 261° |
| 2026-05-04 13:26 | 50.83932 | 7.03599 | 3863 ft | 170 kts | 265° |
| 2026-05-04 13:26 | 50.83895 | 7.01637 | 4128 ft | 186 kts | 265° |
| 2026-05-04 13:26 | 50.83842 | 6.99531 | 4402 ft | 197 kts | 265° |
| 2026-05-04 13:27 | 50.83782 | 6.97319 | 4772 ft | 199 kts | 265° |
| 2026-05-04 13:27 | 50.83710 | 6.95173 | 5302 ft | 195 kts | 264° |
| 2026-05-04 13:27 | 50.83623 | 6.93038 | 5755 ft | 194 kts | 263° |
| 2026-05-04 13:27 | 50.83528 | 6.90897 | 6199 ft | 196 kts | 263° |
| 2026-05-04 13:28 | 50.83429 | 6.88746 | 6657 ft | 197 kts | 263° |
| 2026-05-04 13:28 | 50.83322 | 6.86561 | 7067 ft | 199 kts | 263° |
| 2026-05-04 13:28 | 50.83210 | 6.84366 | 7484 ft | 201 kts | 263° |
| 2026-05-04 13:28 | 50.83093 | 6.82165 | 7888 ft | 202 kts | 263° |
| 2026-05-04 13:29 | 50.82987 | 6.79938 | 8293 ft | 204 kts | 263° |
| 2026-05-04 13:29 | 50.82883 | 6.77701 | 8676 ft | 205 kts | 263° |
| 2026-05-04 13:29 | 50.82780 | 6.75446 | 9053 ft | 205 kts | 263° |
| 2026-05-04 13:29 | 50.82676 | 6.73194 | 9399 ft | 207 kts | 263° |
| 2026-05-04 13:30 | 50.82571 | 6.70914 | 9752 ft | 208 kts | 263° |
| 2026-05-04 13:30 | 50.82466 | 6.68629 | 10072 ft | 209 kts | 263° |
| 2026-05-04 13:30 | 50.82360 | 6.66331 | 10371 ft | 210 kts | 263° |
| 2026-05-04 13:30 | 50.82249 | 6.64025 | 10658 ft | 210 kts | 263° |
| 2026-05-04 13:31 | 50.82183 | 6.61706 | 10918 ft | 213 kts | 268° |
| 2026-05-04 13:31 | 50.82241 | 6.59365 | 11228 ft | 214 kts | 270° |
| 2026-05-04 13:31 | 50.82318 | 6.57015 | 11544 ft | 214 kts | 271° |
| 2026-05-04 13:31 | 50.82380 | 6.54677 | 11871 ft | 213 kts | 270° |
| 2026-05-04 13:32 | 50.82433 | 6.52253 | 11887 ft | 226 kts | 269° |
| 2026-05-04 13:32 | 50.82471 | 6.49711 | 11911 ft | 236 kts | 270° |
| 2026-05-04 13:32 | 50.82506 | 6.47148 | 12042 ft | 235 kts | 269° |
| 2026-05-04 13:32 | 50.82534 | 6.44560 | 12238 ft | 236 kts | 269° |
| 2026-05-04 13:33 | 50.82567 | 6.41968 | 12499 ft | 237 kts | 269° |
| 2026-05-04 13:33 | 50.82603 | 6.39355 | 12742 ft | 238 kts | 270° |
| 2026-05-04 13:33 | 50.82619 | 6.36730 | 12943 ft | 240 kts | 268° |
| 2026-05-04 13:33 | 50.82617 | 6.34088 | 13133 ft | 240 kts | 268° |
| 2026-05-04 13:34 | 50.82634 | 6.31437 | 13313 ft | 241 kts | 269° |
| 2026-05-04 13:34 | 50.82659 | 6.28778 | 13485 ft | 242 kts | 269° |
| 2026-05-04 13:34 | 50.82686 | 6.26111 | 13661 ft | 243 kts | 269° |
| 2026-05-04 13:34 | 50.82713 | 6.23438 | 13822 ft | 243 kts | 269° |
| 2026-05-04 13:35 | 50.82740 | 6.20757 | 13964 ft | 244 kts | 269° |
| 2026-05-04 13:35 | 50.82792 | 6.15377 | 14233 ft | 244 kts | 269° |
| 2026-05-04 13:35 | 50.82818 | 6.12688 | 14349 ft | 245 kts | 269° |
| 2026-05-04 13:36 | 50.82842 | 6.09997 | 14468 ft | 244 kts | 269° |
| 2026-05-04 13:36 | 50.82868 | 6.07316 | 14582 ft | 244 kts | 270° |
| 2026-05-04 13:36 | 50.82890 | 6.04630 | 14660 ft | 245 kts | 269° |
| 2026-05-04 13:36 | 50.82913 | 6.01933 | 14777 ft | 245 kts | 269° |
| 2026-05-04 13:37 | 50.82905 | 5.99234 | 14859 ft | 246 kts | 268° |
| 2026-05-04 13:37 | 50.82864 | 5.96527 | 14937 ft | 246 kts | 267° |
| 2026-05-04 13:37 | 50.82815 | 5.93849 | 15033 ft | 247 kts | 267° |
| 2026-05-04 13:37 | 50.82784 | 5.92020 | 15104 ft | 245 kts | 268° |
| 2026-05-04 13:38 | 50.83221 | 5.88508 | 15191 ft | 250 kts | 286° |
| 2026-05-04 13:38 | 50.83795 | 5.85909 | 15314 ft | 250 kts | 288° |
| 2026-05-04 13:38 | 50.84375 | 5.83307 | 15419 ft | 251 kts | 287° |
| 2026-05-04 13:38 | 50.84919 | 5.80678 | 15511 ft | 251 kts | 285° |
| 2026-05-04 13:39 | 50.85421 | 5.78033 | 15603 ft | 251 kts | 284° |
| 2026-05-04 13:39 | 50.85923 | 5.75371 | 15700 ft | 252 kts | 284° |
| 2026-05-04 13:39 | 50.86428 | 5.72705 | 15780 ft | 252 kts | 284° |
| 2026-05-04 13:39 | 50.86934 | 5.70045 | 15844 ft | 253 kts | 284° |
| 2026-05-04 13:40 | 50.87433 | 5.67416 | 15919 ft | 253 kts | 284° |
| 2026-05-04 13:40 | 50.87938 | 5.64740 | 15980 ft | 253 kts | 284° |
| 2026-05-04 13:40 | 50.88438 | 5.62088 | 16196 ft | 246 kts | 285° |
| 2026-05-04 13:40 | 50.88917 | 5.59566 | 16635 ft | 232 kts | 285° |
| 2026-05-04 13:41 | 50.89373 | 5.57165 | 17011 ft | 224 kts | 285° |
| 2026-05-04 13:41 | 50.89819 | 5.54799 | 17240 ft | 224 kts | 284° |
| 2026-05-04 13:41 | 50.90266 | 5.52424 | 17436 ft | 225 kts | 284° |
| 2026-05-04 13:42 | 50.91157 | 5.47688 | 17812 ft | 226 kts | 284° |
| 2026-05-04 13:42 | 50.91605 | 5.45293 | 18007 ft | 227 kts | 284° |
| 2026-05-04 13:42 | 50.92055 | 5.42894 | 18180 ft | 228 kts | 284° |
| 2026-05-04 13:42 | 50.92505 | 5.40482 | 18340 ft | 229 kts | 284° |
| 2026-05-04 13:43 | 50.92956 | 5.38063 | 18490 ft | 229 kts | 284° |
| 2026-05-04 13:43 | 50.93407 | 5.35642 | 18641 ft | 229 kts | 284° |
| 2026-05-04 13:43 | 50.93859 | 5.33217 | 18790 ft | 229 kts | 283° |
| 2026-05-04 13:43 | 50.94311 | 5.30788 | 18939 ft | 230 kts | 283° |
| 2026-05-04 13:44 | 50.94763 | 5.28357 | 19107 ft | 230 kts | 283° |
| 2026-05-04 13:44 | 50.95215 | 5.25920 | 19251 ft | 231 kts | 283° |
| 2026-05-04 13:44 | 50.95667 | 5.23477 | 19389 ft | 231 kts | 283° |
| 2026-05-04 13:44 | 50.96120 | 5.21030 | 19523 ft | 231 kts | 283° |
| 2026-05-04 13:45 | 50.96572 | 5.18580 | 19663 ft | 231 kts | 284° |
| 2026-05-04 13:45 | 50.97015 | 5.16123 | 19756 ft | 233 kts | 283° |
| 2026-05-04 13:45 | 50.97459 | 5.13634 | 19818 ft | 236 kts | 283° |
| 2026-05-04 13:45 | 50.97914 | 5.11120 | 19888 ft | 238 kts | 283° |
| 2026-05-04 13:46 | 50.98372 | 5.08626 | 19943 ft | 240 kts | 284° |
| 2026-05-04 13:46 | 50.98843 | 5.06070 | 19962 ft | 243 kts | 284° |
| 2026-05-04 13:46 | 50.99321 | 5.03480 | 19973 ft | 246 kts | 284° |
| 2026-05-04 13:46 | 50.99802 | 5.00859 | 19978 ft | 248 kts | 284° |
| 2026-05-04 13:47 | 51.00285 | 4.98214 | 19978 ft | 250 kts | 284° |
| 2026-05-04 13:47 | 51.00772 | 4.95547 | 19980 ft | 252 kts | 284° |
| 2026-05-04 13:47 | 51.01259 | 4.92872 | 19981 ft | 253 kts | 284° |
| 2026-05-04 13:47 | 51.01747 | 4.90185 | 19980 ft | 254 kts | 284° |
| 2026-05-04 13:48 | 51.02239 | 4.87482 | 19982 ft | 254 kts | 284° |
| 2026-05-04 13:48 | 51.02728 | 4.84785 | 19984 ft | 255 kts | 284° |
| 2026-05-04 13:48 | 51.03213 | 4.82108 | 19981 ft | 255 kts | 283° |
| 2026-05-04 13:48 | 51.03703 | 4.79398 | 19982 ft | 255 kts | 284° |
| 2026-05-04 13:49 | 51.04194 | 4.76683 | 19981 ft | 256 kts | 283° |
| 2026-05-04 13:49 | 51.04684 | 4.73962 | 19981 ft | 256 kts | 283° |
| 2026-05-04 13:49 | 51.05171 | 4.71243 | 19996 ft | 256 kts | 284° |
| 2026-05-04 13:49 | 51.05650 | 4.68504 | 20006 ft | 258 kts | 284° |
| 2026-05-04 13:50 | 51.06133 | 4.65746 | 20004 ft | 260 kts | 284° |
| 2026-05-04 13:50 | 51.06628 | 4.62978 | 19984 ft | 260 kts | 285° |
| 2026-05-04 13:50 | 51.07122 | 4.60216 | 19978 ft | 259 kts | 285° |
| 2026-05-04 13:50 | 51.07615 | 4.57455 | 19994 ft | 259 kts | 284° |
| 2026-05-04 13:51 | 51.08105 | 4.54701 | 19992 ft | 259 kts | 284° |
| 2026-05-04 13:51 | 51.08592 | 4.51986 | 19986 ft | 259 kts | 284° |
| 2026-05-04 13:51 | 51.09083 | 4.49229 | 19986 ft | 258 kts | 284° |
| 2026-05-04 13:51 | 51.09568 | 4.46486 | 19988 ft | 257 kts | 284° |
| 2026-05-04 13:52 | 51.10537 | 4.41018 | 19992 ft | 256 kts | 284° |
| 2026-05-04 13:52 | 51.11020 | 4.38289 | 19992 ft | 256 kts | 284° |
| 2026-05-04 13:52 | 51.11501 | 4.35560 | 19993 ft | 256 kts | 284° |
| 2026-05-04 13:53 | 51.11976 | 4.32866 | 19992 ft | 256 kts | 284° |
| 2026-05-04 13:53 | 51.12458 | 4.30142 | 19991 ft | 255 kts | 284° |
| 2026-05-04 13:53 | 51.12938 | 4.27414 | 19991 ft | 255 kts | 284° |
| 2026-05-04 13:54 | 51.13890 | 4.21970 | 19989 ft | 255 kts | 284° |
| 2026-05-04 13:54 | 51.14370 | 4.19240 | 19989 ft | 255 kts | 284° |
| 2026-05-04 13:54 | 51.15319 | 4.13790 | 19998 ft | 256 kts | 284° |
| 2026-05-04 13:55 | 51.15792 | 4.11085 | 19984 ft | 257 kts | 284° |
| 2026-05-04 13:55 | 51.16744 | 4.05604 | 19988 ft | 256 kts | 284° |
| 2026-05-04 13:55 | 51.17218 | 4.02864 | 19980 ft | 257 kts | 284° |
| 2026-05-04 13:56 | 51.17694 | 4.00127 | 19979 ft | 256 kts | 284° |
| 2026-05-04 13:56 | 51.18168 | 3.97387 | 19975 ft | 256 kts | 284° |
| 2026-05-04 13:56 | 51.19110 | 3.91911 | 19975 ft | 256 kts | 284° |
| 2026-05-04 13:57 | 51.19580 | 3.89182 | 19975 ft | 255 kts | 284° |
| 2026-05-04 13:57 | 51.20049 | 3.86448 | 19974 ft | 255 kts | 284° |
| 2026-05-04 13:58 | 51.21456 | 3.78247 | 19982 ft | 256 kts | 284° |
| 2026-05-04 13:58 | 51.22388 | 3.72775 | 19981 ft | 256 kts | 283° |
| 2026-05-04 13:58 | 51.22851 | 3.70038 | 19980 ft | 256 kts | 283° |
| 2026-05-04 13:59 | 51.23308 | 3.67329 | 19982 ft | 256 kts | 284° |
| 2026-05-04 13:59 | 51.23766 | 3.64586 | 19980 ft | 256 kts | 283° |
| 2026-05-04 13:59 | 51.24542 | 3.59046 | 19985 ft | 255 kts | 280° |
| 2026-05-04 14:00 | 51.24905 | 3.56263 | 19985 ft | 255 kts | 280° |
| 2026-05-04 14:00 | 51.25642 | 3.50709 | 19987 ft | 255 kts | 280° |
| 2026-05-04 14:00 | 51.26003 | 3.47972 | 19987 ft | 255 kts | 281° |
| 2026-05-04 14:01 | 51.26373 | 3.45198 | 19987 ft | 255 kts | 280° |
| 2026-05-04 14:01 | 51.26741 | 3.42419 | 19994 ft | 255 kts | 281° |
| 2026-05-04 14:01 | 51.27466 | 3.36861 | 19994 ft | 255 kts | 280° |
| 2026-05-04 14:02 | 51.27821 | 3.34082 | 19993 ft | 255 kts | 280° |
| 2026-05-04 14:02 | 51.28179 | 3.31303 | 19996 ft | 255 kts | 279° |
| 2026-05-04 14:02 | 51.28414 | 3.29460 | 19995 ft | 256 kts | 279° |
| 2026-05-04 14:02 | 51.28774 | 3.26678 | 19997 ft | 256 kts | 279° |
| 2026-05-04 14:03 | 51.29129 | 3.23890 | 20000 ft | 256 kts | 279° |
| 2026-05-04 14:03 | 51.29486 | 3.21116 | 20000 ft | 255 kts | 279° |
| 2026-05-04 14:03 | 51.29841 | 3.18340 | 19998 ft | 254 kts | 279° |
| 2026-05-04 14:03 | 51.30193 | 3.15569 | 19998 ft | 254 kts | 279° |
| 2026-05-04 14:04 | 51.30892 | 3.10066 | 19997 ft | 254 kts | 279° |
| 2026-05-04 14:04 | 51.31244 | 3.07298 | 19996 ft | 254 kts | 279° |
| 2026-05-04 14:04 | 51.31593 | 3.04535 | 19995 ft | 253 kts | 279° |
| 2026-05-04 14:05 | 51.32289 | 2.99010 | 19995 ft | 253 kts | 279° |
| 2026-05-04 14:05 | 51.32638 | 2.96253 | 19995 ft | 253 kts | 279° |
| 2026-05-04 14:05 | 51.32984 | 2.93491 | 20004 ft | 253 kts | 279° |
| 2026-05-04 14:06 | 51.33329 | 2.90734 | 20004 ft | 253 kts | 279° |
| 2026-05-04 14:06 | 51.33672 | 2.87980 | 20006 ft | 253 kts | 279° |
| 2026-05-04 14:06 | 51.34014 | 2.85218 | 20012 ft | 253 kts | 279° |
| 2026-05-04 14:06 | 51.34353 | 2.82491 | 20009 ft | 253 kts | 279° |
| 2026-05-04 14:07 | 51.34698 | 2.79733 | 20008 ft | 253 kts | 279° |
| 2026-05-04 14:07 | 51.35040 | 2.76971 | 20007 ft | 252 kts | 279° |
| 2026-05-04 14:07 | 51.35377 | 2.74212 | 20007 ft | 252 kts | 278° |
| 2026-05-04 14:07 | 51.35718 | 2.71462 | 20007 ft | 252 kts | 279° |
| 2026-05-04 14:08 | 51.36061 | 2.68707 | 20006 ft | 252 kts | 278° |
| 2026-05-04 14:08 | 51.36399 | 2.65958 | 20005 ft | 252 kts | 279° |
| 2026-05-04 14:08 | 51.36738 | 2.63201 | 20004 ft | 252 kts | 279° |
| 2026-05-04 14:08 | 51.37077 | 2.60450 | 20003 ft | 252 kts | 279° |
| 2026-05-04 14:09 | 51.37749 | 2.54946 | 20004 ft | 252 kts | 278° |
| 2026-05-04 14:09 | 51.38085 | 2.52197 | 20004 ft | 252 kts | 279° |
| 2026-05-04 14:10 | 51.38752 | 2.46728 | 20005 ft | 252 kts | 279° |
| 2026-05-04 14:10 | 51.39090 | 2.43967 | 20004 ft | 252 kts | 279° |
| 2026-05-04 14:10 | 51.39424 | 2.41216 | 20004 ft | 252 kts | 279° |
| 2026-05-04 14:10 | 51.39757 | 2.38475 | 20009 ft | 253 kts | 278° |
| 2026-05-04 14:11 | 51.40087 | 2.35713 | 20003 ft | 253 kts | 278° |
| 2026-05-04 14:11 | 51.40756 | 2.30166 | 20002 ft | 254 kts | 278° |
| 2026-05-04 14:11 | 51.41087 | 2.27392 | 20002 ft | 254 kts | 278° |
| 2026-05-04 14:12 | 51.41413 | 2.24616 | 20007 ft | 254 kts | 278° |
| 2026-05-04 14:12 | 51.41735 | 2.21836 | 20005 ft | 254 kts | 278° |
| 2026-05-04 14:12 | 51.42403 | 2.16289 | 20004 ft | 254 kts | 278° |
| 2026-05-04 14:13 | 51.42745 | 2.13509 | 19999 ft | 254 kts | 278° |
| 2026-05-04 14:13 | 51.43090 | 2.10730 | 19998 ft | 254 kts | 278° |
| 2026-05-04 14:13 | 51.43431 | 2.07949 | 19998 ft | 254 kts | 278° |
| 2026-05-04 14:13 | 51.43759 | 2.05210 | 19998 ft | 254 kts | 278° |
| 2026-05-04 14:14 | 51.44093 | 2.02430 | 19999 ft | 254 kts | 278° |
| 2026-05-04 14:14 | 51.44758 | 1.96863 | 19998 ft | 254 kts | 278° |
| 2026-05-04 14:14 | 51.45090 | 1.94083 | 19999 ft | 254 kts | 278° |
| 2026-05-04 14:15 | 51.45743 | 1.88503 | 20002 ft | 255 kts | 278° |
| 2026-05-04 14:15 | 51.46393 | 1.82917 | 20000 ft | 255 kts | 278° |
| 2026-05-04 14:16 | 51.47043 | 1.77327 | 19998 ft | 255 kts | 278° |
| 2026-05-04 14:16 | 51.47365 | 1.74529 | 19998 ft | 255 kts | 278° |
| 2026-05-04 14:17 | 51.48009 | 1.68938 | 20003 ft | 255 kts | 278° |
| 2026-05-04 14:17 | 51.48329 | 1.66138 | 20002 ft | 255 kts | 278° |
| 2026-05-04 14:17 | 51.48969 | 1.60543 | 20002 ft | 255 kts | 278° |
| 2026-05-04 14:18 | 51.49285 | 1.57774 | 20000 ft | 255 kts | 278° |
| 2026-05-04 14:18 | 51.49921 | 1.52183 | 20003 ft | 255 kts | 278° |
| 2026-05-04 14:19 | 51.50554 | 1.46583 | 20006 ft | 255 kts | 278° |
| 2026-05-04 14:19 | 51.50869 | 1.43780 | 20007 ft | 255 kts | 277° |
| 2026-05-04 14:19 | 51.51187 | 1.40970 | 20005 ft | 255 kts | 277° |
| 2026-05-04 14:19 | 51.51501 | 1.38170 | 20005 ft | 255 kts | 277° |
| 2026-05-04 14:20 | 51.51810 | 1.35398 | 20006 ft | 255 kts | 277° |
| 2026-05-04 14:20 | 51.52124 | 1.32590 | 20005 ft | 255 kts | 277° |
| 2026-05-04 14:20 | 51.52436 | 1.29783 | 20005 ft | 255 kts | 277° |
| 2026-05-04 14:21 | 51.53060 | 1.24162 | 20005 ft | 255 kts | 277° |
| 2026-05-04 14:21 | 51.53372 | 1.21352 | 20007 ft | 255 kts | 277° |
| 2026-05-04 14:21 | 51.53682 | 1.18543 | 20006 ft | 255 kts | 277° |
| 2026-05-04 14:21 | 51.53992 | 1.15729 | 20007 ft | 255 kts | 277° |
| 2026-05-04 14:22 | 51.54300 | 1.12921 | 20009 ft | 255 kts | 277° |
| 2026-05-04 14:22 | 51.54610 | 1.10102 | 20008 ft | 255 kts | 277° |
| 2026-05-04 14:22 | 51.54917 | 1.07293 | 20007 ft | 255 kts | 277° |
| 2026-05-04 14:22 | 51.55224 | 1.04480 | 20007 ft | 255 kts | 277° |
| 2026-05-04 14:23 | 51.55832 | 0.98895 | 20007 ft | 255 kts | 277° |
| 2026-05-04 14:23 | 51.56136 | 0.96081 | 20011 ft | 255 kts | 277° |
| 2026-05-04 14:23 | 51.56443 | 0.93269 | 20022 ft | 256 kts | 277° |
| 2026-05-04 14:24 | 51.56746 | 0.90454 | 20020 ft | 256 kts | 277° |
| 2026-05-04 14:24 | 51.57047 | 0.87642 | 20021 ft | 256 kts | 277° |
| 2026-05-04 14:24 | 51.57346 | 0.84827 | 20017 ft | 255 kts | 277° |
| 2026-05-04 14:24 | 51.57647 | 0.82019 | 20012 ft | 255 kts | 277° |
| 2026-05-04 14:25 | 51.57949 | 0.79207 | 20019 ft | 255 kts | 277° |
| 2026-05-04 14:25 | 51.58549 | 0.73596 | 20022 ft | 254 kts | 277° |
| 2026-05-04 14:25 | 51.58846 | 0.70788 | 20022 ft | 254 kts | 277° |
| 2026-05-04 14:26 | 51.59143 | 0.67980 | 20015 ft | 254 kts | 277° |
| 2026-05-04 14:26 | 51.59435 | 0.65212 | 20018 ft | 254 kts | 277° |
| 2026-05-04 14:26 | 51.59729 | 0.62419 | 20024 ft | 254 kts | 277° |
| 2026-05-04 14:26 | 51.60023 | 0.59621 | 20018 ft | 254 kts | 277° |
| 2026-05-04 14:27 | 51.60318 | 0.56814 | 20022 ft | 254 kts | 277° |
| 2026-05-04 14:27 | 51.60611 | 0.54011 | 20015 ft | 254 kts | 277° |
| 2026-05-04 14:27 | 51.60904 | 0.51203 | 20014 ft | 254 kts | 277° |
| 2026-05-04 14:27 | 51.61196 | 0.48397 | 20018 ft | 254 kts | 277° |
| 2026-05-04 14:28 | 51.61490 | 0.45595 | 20015 ft | 254 kts | 276° |
| 2026-05-04 14:28 | 51.61781 | 0.42788 | 20016 ft | 254 kts | 276° |
| 2026-05-04 14:28 | 51.62070 | 0.39975 | 20014 ft | 254 kts | 276° |
| 2026-05-04 14:28 | 51.62357 | 0.37166 | 20011 ft | 254 kts | 276° |
| 2026-05-04 14:29 | 51.62933 | 0.31549 | 20013 ft | 254 kts | 276° |
| 2026-05-04 14:29 | 51.63509 | 0.25933 | 20015 ft | 254 kts | 276° |
| 2026-05-04 14:30 | 51.63795 | 0.23119 | 20024 ft | 254 kts | 276° |
| 2026-05-04 14:30 | 51.64081 | 0.20306 | 20017 ft | 255 kts | 276° |
| 2026-05-04 14:30 | 51.64658 | 0.14686 | 20015 ft | 252 kts | 278° |
| 2026-05-04 14:31 | 51.65290 | 0.12027 | 20028 ft | 257 kts | 292° |
| 2026-05-04 14:31 | 51.66927 | 0.06905 | 20015 ft | 259 kts | 294° |
| 2026-05-04 14:32 | 51.68444 | 0.01679 | 20013 ft | 259 kts | 290° |
| 2026-05-04 14:32 | 51.69182 | -0.00977 | 20067 ft | 259 kts | 291° |
| 2026-05-04 14:32 | 51.69926 | -0.03640 | 20066 ft | 260 kts | 291° |
| 2026-05-04 14:32 | 51.70672 | -0.06296 | 20063 ft | 260 kts | 291° |
| 2026-05-04 14:33 | 51.71415 | -0.08951 | 20064 ft | 260 kts | 291° |
| 2026-05-04 14:33 | 51.72156 | -0.11604 | 20076 ft | 260 kts | 291° |
| 2026-05-04 14:33 | 51.72899 | -0.14264 | 20074 ft | 260 kts | 291° |
| 2026-05-04 14:33 | 51.73643 | -0.16925 | 20073 ft | 260 kts | 291° |
| 2026-05-04 14:34 | 51.74386 | -0.19591 | 20077 ft | 260 kts | 291° |
| 2026-05-04 14:34 | 51.75002 | -0.21810 | 20078 ft | 260 kts | 291° |
| 2026-05-04 14:34 | 51.75747 | -0.24481 | 20076 ft | 260 kts | 291° |
| 2026-05-04 14:34 | 51.76488 | -0.27150 | 20073 ft | 260 kts | 291° |
| 2026-05-04 14:35 | 51.77207 | -0.29740 | 20074 ft | 260 kts | 291° |
| 2026-05-04 14:35 | 51.77946 | -0.32403 | 20076 ft | 260 kts | 291° |
| 2026-05-04 14:35 | 51.78683 | -0.35064 | 20047 ft | 260 kts | 291° |
| 2026-05-04 14:35 | 51.79413 | -0.37698 | 20051 ft | 259 kts | 291° |
| 2026-05-04 14:36 | 51.80149 | -0.40358 | 20048 ft | 258 kts | 291° |
| 2026-05-04 14:36 | 51.81213 | -0.42670 | 20050 ft | 262 kts | 317° |
| 2026-05-04 14:36 | 51.82729 | -0.44342 | 20046 ft | 265 kts | 327° |
| 2026-05-04 14:36 | 51.84349 | -0.45808 | 20054 ft | 267 kts | 329° |
| 2026-05-04 14:37 | 51.85976 | -0.47243 | 20048 ft | 267 kts | 328° |
| 2026-05-04 14:37 | 51.87593 | -0.48720 | 20043 ft | 267 kts | 327° |
| 2026-05-04 14:37 | 51.89175 | -0.50257 | 20048 ft | 266 kts | 326° |
| 2026-05-04 14:37 | 51.90742 | -0.51791 | 20049 ft | 266 kts | 326° |
| 2026-05-04 14:38 | 51.92330 | -0.53347 | 20042 ft | 266 kts | 326° |
| 2026-05-04 14:38 | 51.93921 | -0.54896 | 20051 ft | 267 kts | 327° |
| 2026-05-04 14:38 | 51.95526 | -0.56460 | 19880 ft | 273 kts | 327° |
| 2026-05-04 14:38 | 51.97195 | -0.58089 | 19537 ft | 284 kts | 326° |
| 2026-05-04 14:39 | 51.98913 | -0.59770 | 19200 ft | 292 kts | 326° |
| 2026-05-04 14:39 | 52.00678 | -0.61492 | 18859 ft | 298 kts | 327° |
| 2026-05-04 14:39 | 52.02466 | -0.63247 | 18526 ft | 303 kts | 327° |
| 2026-05-04 14:40 | 52.06106 | -0.66817 | 17798 ft | 307 kts | 327° |
| 2026-05-04 14:40 | 52.07933 | -0.68606 | 17424 ft | 307 kts | 327° |
| 2026-05-04 14:40 | 52.09766 | -0.70408 | 17056 ft | 308 kts | 327° |
| 2026-05-04 14:40 | 52.11576 | -0.72197 | 16688 ft | 308 kts | 326° |
| 2026-05-04 14:41 | 52.13406 | -0.73998 | 16328 ft | 308 kts | 326° |
| 2026-05-04 14:41 | 52.15240 | -0.75806 | 15973 ft | 307 kts | 326° |
| 2026-05-04 14:41 | 52.18898 | -0.79421 | 15231 ft | 307 kts | 327° |
| 2026-05-04 14:42 | 52.22545 | -0.83020 | 14438 ft | 306 kts | 326° |
| 2026-05-04 14:42 | 52.24346 | -0.84793 | 14061 ft | 305 kts | 326° |
| 2026-05-04 14:42 | 52.26161 | -0.86592 | 13659 ft | 304 kts | 326° |
| 2026-05-04 14:43 | 52.27938 | -0.88369 | 13412 ft | 297 kts | 327° |
| 2026-05-04 14:43 | 52.29694 | -0.90113 | 13172 ft | 292 kts | 327° |
| 2026-05-04 14:43 | 52.31428 | -0.91817 | 12925 ft | 289 kts | 327° |
| 2026-05-04 14:43 | 52.33131 | -0.93504 | 12666 ft | 283 kts | 327° |
| 2026-05-04 14:44 | 52.34801 | -0.95161 | 12408 ft | 279 kts | 326° |
| 2026-05-04 14:44 | 52.36457 | -0.96806 | 12150 ft | 276 kts | 327° |
| 2026-05-04 14:44 | 52.38089 | -0.98434 | 11898 ft | 274 kts | 326° |
| 2026-05-04 14:44 | 52.39678 | -1.00123 | 11637 ft | 269 kts | 317° |
| 2026-05-04 14:45 | 52.40688 | -1.02652 | 11334 ft | 267 kts | 285° |
| 2026-05-04 14:45 | 52.40733 | -1.05612 | 11044 ft | 265 kts | 255° |
| 2026-05-04 14:45 | 52.39818 | -1.08188 | 10765 ft | 265 kts | 224° |
| 2026-05-04 14:45 | 52.38201 | -1.09598 | 10502 ft | 267 kts | 193° |
| 2026-05-04 14:46 | 52.36352 | -1.09412 | 10260 ft | 270 kts | 162° |
| 2026-05-04 14:46 | 52.34809 | -1.07684 | 10008 ft | 274 kts | 132° |
| 2026-05-04 14:46 | 52.34007 | -1.04926 | 9730 ft | 276 kts | 102° |
| 2026-05-04 14:46 | 52.33806 | -1.01861 | 9461 ft | 266 kts | 104° |
| 2026-05-04 14:47 | 52.33193 | -0.99017 | 9216 ft | 266 kts | 112° |
| 2026-05-04 14:47 | 52.32519 | -0.96194 | 8955 ft | 268 kts | 112° |
| 2026-05-04 14:47 | 52.31860 | -0.93341 | 8703 ft | 267 kts | 106° |
| 2026-05-04 14:47 | 52.31825 | -0.90324 | 8432 ft | 266 kts | 83° |
| 2026-05-04 14:48 | 52.32096 | -0.87313 | 8192 ft | 268 kts | 81° |
| 2026-05-04 14:48 | 52.32329 | -0.85345 | 8038 ft | 266 kts | 74° |
| 2026-05-04 14:48 | 52.33782 | -0.82215 | 7669 ft | 268 kts | 31° |
| 2026-05-04 14:48 | 52.35544 | -0.81371 | 7412 ft | 265 kts | 358° |
| 2026-05-04 14:49 | 52.36738 | -0.81710 | 7245 ft | 262 kts | 338° |
| 2026-05-04 14:49 | 52.38200 | -0.83400 | 7005 ft | 255 kts | 312° |
| 2026-05-04 14:49 | 52.38408 | -0.83776 | 6969 ft | 254 kts | 310° |
| 2026-05-04 14:52 | 52.38888 | -0.84682 | 6881 ft | 252 kts | 309° |
| 2026-05-04 14:52 | 52.39748 | -0.87099 | 6638 ft | 247 kts | 283° |
| 2026-05-04 14:52 | 52.39718 | -0.89873 | 6393 ft | 240 kts | 261° |
| 2026-05-04 14:53 | 52.39877 | -0.92505 | 6102 ft | 242 kts | 292° |
| 2026-05-04 14:53 | 52.40980 | -0.94581 | 5812 ft | 247 kts | 327° |
| 2026-05-04 14:53 | 52.42567 | -0.95625 | 5571 ft | 247 kts | 348° |
| 2026-05-04 14:53 | 52.44279 | -0.95960 | 5348 ft | 248 kts | 351° |
| 2026-05-04 14:54 | 52.45980 | -0.96469 | 5167 ft | 245 kts | 346° |
| 2026-05-04 14:54 | 52.47622 | -0.97091 | 5104 ft | 238 kts | 345° |
| 2026-05-04 14:54 | 52.49207 | -0.97680 | 5074 ft | 236 kts | 346° |
| 2026-05-04 14:54 | 52.50831 | -0.98239 | 5055 ft | 235 kts | 346° |
| 2026-05-04 14:55 | 52.52427 | -0.98766 | 5056 ft | 233 kts | 346° |
| 2026-05-04 14:55 | 52.54002 | -0.99282 | 5043 ft | 235 kts | 347° |
| 2026-05-04 14:55 | 52.55632 | -0.99808 | 5041 ft | 242 kts | 347° |
| 2026-05-04 14:55 | 52.57291 | -1.00342 | 5046 ft | 246 kts | 347° |
| 2026-05-04 14:56 | 52.58981 | -1.00889 | 5040 ft | 249 kts | 347° |
| 2026-05-04 14:56 | 52.60673 | -1.01527 | 5029 ft | 246 kts | 343° |
| 2026-05-04 14:56 | 52.62288 | -1.02332 | 5037 ft | 240 kts | 340° |
| 2026-05-04 14:56 | 52.63881 | -1.03165 | 5033 ft | 241 kts | 341° |
| 2026-05-04 14:57 | 52.65490 | -1.03867 | 5032 ft | 243 kts | 347° |
| 2026-05-04 14:57 | 52.67175 | -1.04199 | 5040 ft | 245 kts | 356° |
| 2026-05-04 14:57 | 52.68889 | -1.04164 | 5040 ft | 247 kts | 2° |
| 2026-05-04 14:57 | 52.70613 | -1.03918 | 5042 ft | 248 kts | 4° |
| 2026-05-04 14:58 | 52.72334 | -1.03619 | 5038 ft | 249 kts | 5° |
| 2026-05-04 14:58 | 52.74063 | -1.03323 | 4898 ft | 253 kts | 4° |
| 2026-05-04 14:58 | 52.75820 | -1.03024 | 4458 ft | 256 kts | 5° |
| 2026-05-04 14:58 | 52.77567 | -1.02746 | 4174 ft | 245 kts | 5° |
| 2026-05-04 14:59 | 52.79238 | -1.02496 | 3873 ft | 238 kts | 4° |
| 2026-05-04 14:59 | 52.80864 | -1.02283 | 3661 ft | 230 kts | 4° |
| 2026-05-04 14:59 | 52.83913 | -1.02469 | 3034 ft | 220 kts | 333° |
| 2026-05-04 15:00 | 52.84957 | -1.04265 | 2696 ft | 221 kts | 295° |
| 2026-05-04 15:00 | 52.85154 | -1.06717 | 2364 ft | 205 kts | 265° |
| 2026-05-04 15:00 | 52.84940 | -1.08907 | 2155 ft | 189 kts | 251° |
| 2026-05-04 15:01 | 52.83866 | -1.12802 | 2022 ft | 178 kts | 242° |
| 2026-05-04 15:01 | 52.83452 | -1.14641 | 2013 ft | 167 kts | 261° |
| 2026-05-04 15:01 | 52.83359 | -1.16483 | 2004 ft | 159 kts | 269° |
| 2026-05-04 15:01 | 52.83357 | -1.18289 | 1833 ft | 155 kts | 270° |
| 2026-05-04 15:02 | 52.83346 | -1.20027 | 1637 ft | 147 kts | 269° |
| 2026-05-04 15:02 | 52.83308 | -1.21665 | 1443 ft | 140 kts | 268° |
| 2026-05-04 15:02 | 52.83269 | -1.23241 | 1250 ft | 132 kts | 268° |
| 2026-05-04 15:02 | 52.83242 | -1.24731 | 1065 ft | 128 kts | 269° |
| 2026-05-04 15:03 | 52.83220 | -1.26177 | 882 ft | 123 kts | 269° |
| 2026-05-04 15:03 | 52.83199 | -1.27543 | 723 ft | 116 kts | 268° |
| 2026-05-04 15:03 | 52.83175 | -1.28872 | 560 ft | 115 kts | 268° |
| 2026-05-04 15:03 | 52.83148 | -1.30173 | 402 ft | 114 kts | 267° |
| 2026-05-04 15:04 | 52.83125 | -1.31465 | 295 ft | 107 kts | 266° |
| 2026-05-04 15:04 | 52.83111 | -1.32122 | 297 ft | 40 kts | 268° |
| 2026-05-04 15:04 | 52.83100 | -1.32513 | 299 ft | 20 kts | 254° |
| 2026-05-04 15:04 | 52.83024 | -1.32675 | 299 ft | 16 kts | 223° |
| 2026-05-04 15:05 | 52.82969 | -1.32744 | 300 ft | 10 kts | 190° |
| 2026-05-04 15:05 | 52.82931 | -1.32656 | 302 ft | 18 kts | 93° |
| 2026-05-04 15:05 | 52.82937 | -1.32469 | 298 ft | 15 kts | 88° |
| 2026-05-04 15:05 | 52.82939 | -1.32313 | 297 ft | 13 kts | 88° |
| 2026-05-04 15:06 | 52.82929 | -1.32180 | 299 ft | 10 kts | 137° |
| 2026-05-04 15:06 | 52.82880 | -1.32208 | 297 ft | 6 kts | 235° |
| 2026-05-04 15:06 | 52.82861 | -1.32232 | 297 ft | 6 kts | 206° |